sensor_id;sensor_type;location;lat;lon;timestamp;P1;durP1;ratioP1;P2;durP2;ratioP2
10947;SDS011;5526;42.070;24.752;2023-06-26T00:00:39;8.70;;;7.88;;
10947;SDS011;5526;42.070;24.752;2023-06-26T00:03:07;9.30;;;8.40;;
10947;SDS011;5526;42.070;24.752;2023-06-26T00:05:38;8.85;;;8.02;;
10947;SDS011;5526;42.070;24.752;2023-06-26T00:08:06;9.75;;;8.85;;
10947;SDS011;5526;42.070;24.752;2023-06-26T00:10:34;9.43;;;8.52;;
10947;SDS011;5526;42.070;24.752;2023-06-26T00:13:02;8.88;;;7.97;;
10947;SDS011;5526;42.070;24.752;2023-06-26T00:15:29;9.60;;;8.55;;
10947;SDS011;5526;42.070;24.752;2023-06-26T00:17:59;10.85;;;8.95;;
10947;SDS011;5526;42.070;24.752;2023-06-26T00:20:29;9.48;;;8.57;;
10947;SDS011;5526;42.070;24.752;2023-06-26T00:22:59;8.52;;;7.82;;
10947;SDS011;5526;42.070;24.752;2023-06-26T00:25:26;10.07;;;9.10;;
10947;SDS011;5526;42.070;24.752;2023-06-26T00:27:54;12.15;;;9.30;;
10947;SDS011;5526;42.070;24.752;2023-06-26T00:30:22;9.85;;;8.85;;
10947;SDS011;5526;42.070;24.752;2023-06-26T00:32:49;9.95;;;9.05;;
10947;SDS011;5526;42.070;24.752;2023-06-26T00:35:19;10.57;;;9.50;;
10947;SDS011;5526;42.070;24.752;2023-06-26T00:37:47;9.98;;;8.98;;
10947;SDS011;5526;42.070;24.752;2023-06-26T00:40:15;9.52;;;8.70;;
10947;SDS011;5526;42.070;24.752;2023-06-26T00:42:43;9.60;;;8.70;;
10947;SDS011;5526;42.070;24.752;2023-06-26T00:45:11;10.63;;;9.35;;
10947;SDS011;5526;42.070;24.752;2023-06-26T00:47:39;10.15;;;9.15;;
10947;SDS011;5526;42.070;24.752;2023-06-26T00:50:07;10.15;;;9.20;;
10947;SDS011;5526;42.070;24.752;2023-06-26T00:52:36;9.50;;;8.60;;
10947;SDS011;5526;42.070;24.752;2023-06-26T00:55:04;9.85;;;8.85;;
10947;SDS011;5526;42.070;24.752;2023-06-26T00:57:32;10.90;;;9.80;;
10947;SDS011;5526;42.070;24.752;2023-06-26T01:00:00;11.88;;;9.88;;
10947;SDS011;5526;42.070;24.752;2023-06-26T01:02:29;10.27;;;9.00;;
10947;SDS011;5526;42.070;24.752;2023-06-26T01:04:59;10.88;;;9.88;;
10947;SDS011;5526;42.070;24.752;2023-06-26T01:07:28;10.60;;;9.57;;
10947;SDS011;5526;42.070;24.752;2023-06-26T01:09:59;10.45;;;9.38;;
10947;SDS011;5526;42.070;24.752;2023-06-26T01:12:27;10.85;;;9.85;;
10947;SDS011;5526;42.070;24.752;2023-06-26T01:14:55;10.93;;;9.82;;
10947;SDS011;5526;42.070;24.752;2023-06-26T01:17:22;10.70;;;9.63;;
10947;SDS011;5526;42.070;24.752;2023-06-26T01:19:50;11.65;;;10.13;;
10947;SDS011;5526;42.070;24.752;2023-06-26T01:22:23;10.57;;;9.57;;
10947;SDS011;5526;42.070;24.752;2023-06-26T01:24:59;10.90;;;9.90;;
10947;SDS011;5526;42.070;24.752;2023-06-26T01:27:40;10.48;;;9.27;;
10947;SDS011;5526;42.070;24.752;2023-06-26T01:30:09;11.20;;;10.10;;
10947;SDS011;5526;42.070;24.752;2023-06-26T01:32:38;10.55;;;9.55;;
10947;SDS011;5526;42.070;24.752;2023-06-26T01:35:07;10.80;;;9.80;;
10947;SDS011;5526;42.070;24.752;2023-06-26T01:37:36;10.50;;;9.30;;
10947;SDS011;5526;42.070;24.752;2023-06-26T01:40:04;11.55;;;10.07;;
10947;SDS011;5526;42.070;24.752;2023-06-26T01:42:32;10.60;;;9.60;;
10947;SDS011;5526;42.070;24.752;2023-06-26T01:45:03;10.95;;;9.85;;
10947;SDS011;5526;42.070;24.752;2023-06-26T01:47:39;11.60;;;10.50;;
10947;SDS011;5526;42.070;24.752;2023-06-26T01:50:11;11.10;;;9.77;;
10947;SDS011;5526;42.070;24.752;2023-06-26T01:52:46;10.38;;;9.38;;
10947;SDS011;5526;42.070;24.752;2023-06-26T01:55:29;11.00;;;10.00;;
10947;SDS011;5526;42.070;24.752;2023-06-26T01:58:01;10.90;;;9.85;;
10947;SDS011;5526;42.070;24.752;2023-06-26T02:00:31;10.93;;;9.75;;
10947;SDS011;5526;42.070;24.752;2023-06-26T02:03:00;11.18;;;10.07;;
10947;SDS011;5526;42.070;24.752;2023-06-26T02:05:28;11.02;;;9.95;;
10947;SDS011;5526;42.070;24.752;2023-06-26T02:07:56;11.02;;;9.93;;
10947;SDS011;5526;42.070;24.752;2023-06-26T02:10:24;11.68;;;10.48;;
10947;SDS011;5526;42.070;24.752;2023-06-26T02:12:52;9.88;;;8.98;;
10947;SDS011;5526;42.070;24.752;2023-06-26T02:15:19;11.10;;;10.00;;
10947;SDS011;5526;42.070;24.752;2023-06-26T02:17:49;10.80;;;9.68;;
10947;SDS011;5526;42.070;24.752;2023-06-26T02:20:16;10.73;;;9.73;;
10947;SDS011;5526;42.070;24.752;2023-06-26T02:22:44;10.98;;;9.98;;
10947;SDS011;5526;42.070;24.752;2023-06-26T02:25:12;11.23;;;10.23;;
10947;SDS011;5526;42.070;24.752;2023-06-26T02:27:40;11.18;;;10.18;;
10947;SDS011;5526;42.070;24.752;2023-06-26T02:30:08;10.75;;;9.57;;
10947;SDS011;5526;42.070;24.752;2023-06-26T02:32:36;11.85;;;10.23;;
10947;SDS011;5526;42.070;24.752;2023-06-26T02:35:06;11.15;;;10.00;;
10947;SDS011;5526;42.070;24.752;2023-06-26T02:37:34;11.65;;;10.55;;
10947;SDS011;5526;42.070;24.752;2023-06-26T02:40:02;11.48;;;10.35;;
10947;SDS011;5526;42.070;24.752;2023-06-26T02:42:31;11.38;;;10.27;;
10947;SDS011;5526;42.070;24.752;2023-06-26T02:44:59;10.82;;;9.82;;
10947;SDS011;5526;42.070;24.752;2023-06-26T02:47:26;11.18;;;10.05;;
10947;SDS011;5526;42.070;24.752;2023-06-26T02:49:54;11.88;;;10.68;;
10947;SDS011;5526;42.070;24.752;2023-06-26T02:52:23;11.63;;;10.43;;
10947;SDS011;5526;42.070;24.752;2023-06-26T02:54:51;10.43;;;9.38;;
10947;SDS011;5526;42.070;24.752;2023-06-26T02:57:19;11.00;;;9.95;;
10947;SDS011;5526;42.070;24.752;2023-06-26T02:59:47;11.40;;;10.30;;
10947;SDS011;5526;42.070;24.752;2023-06-26T03:02:14;11.65;;;10.55;;
10947;SDS011;5526;42.070;24.752;2023-06-26T03:04:42;10.85;;;9.70;;
10947;SDS011;5526;42.070;24.752;2023-06-26T03:07:10;11.55;;;10.55;;
10947;SDS011;5526;42.070;24.752;2023-06-26T03:09:39;11.32;;;10.32;;
10947;SDS011;5526;42.070;24.752;2023-06-26T03:12:07;11.15;;;10.15;;
10947;SDS011;5526;42.070;24.752;2023-06-26T03:14:35;10.73;;;9.63;;
10947;SDS011;5526;42.070;24.752;2023-06-26T03:17:03;11.85;;;10.18;;
10947;SDS011;5526;42.070;24.752;2023-06-26T03:19:32;10.85;;;9.85;;
10947;SDS011;5526;42.070;24.752;2023-06-26T03:22:00;11.23;;;10.18;;
10947;SDS011;5526;42.070;24.752;2023-06-26T03:24:29;11.30;;;10.20;;
10947;SDS011;5526;42.070;24.752;2023-06-26T03:26:58;11.95;;;10.75;;
10947;SDS011;5526;42.070;24.752;2023-06-26T03:29:26;11.82;;;10.63;;
10947;SDS011;5526;42.070;24.752;2023-06-26T03:31:55;11.27;;;10.23;;
10947;SDS011;5526;42.070;24.752;2023-06-26T03:34:23;11.82;;;10.68;;
10947;SDS011;5526;42.070;24.752;2023-06-26T03:36:50;12.05;;;10.98;;
10947;SDS011;5526;42.070;24.752;2023-06-26T03:39:18;12.15;;;10.95;;
10947;SDS011;5526;42.070;24.752;2023-06-26T03:41:46;12.02;;;10.73;;
10947;SDS011;5526;42.070;24.752;2023-06-26T03:44:15;11.52;;;10.43;;
10947;SDS011;5526;42.070;24.752;2023-06-26T03:46:43;11.48;;;10.38;;
10947;SDS011;5526;42.070;24.752;2023-06-26T03:49:11;10.65;;;9.73;;
10947;SDS011;5526;42.070;24.752;2023-06-26T03:51:39;11.82;;;10.70;;
10947;SDS011;5526;42.070;24.752;2023-06-26T03:54:07;12.02;;;10.88;;
10947;SDS011;5526;42.070;24.752;2023-06-26T03:56:35;11.93;;;10.48;;
10947;SDS011;5526;42.070;24.752;2023-06-26T03:59:02;12.25;;;11.05;;
10947;SDS011;5526;42.070;24.752;2023-06-26T04:01:32;12.05;;;10.90;;
10947;SDS011;5526;42.070;24.752;2023-06-26T04:04:00;12.38;;;11.20;;
10947;SDS011;5526;42.070;24.752;2023-06-26T04:06:28;11.93;;;10.82;;
10947;SDS011;5526;42.070;24.752;2023-06-26T04:08:56;11.23;;;10.32;;
10947;SDS011;5526;42.070;24.752;2023-06-26T04:11:24;12.45;;;10.75;;
10947;SDS011;5526;42.070;24.752;2023-06-26T04:13:52;13.25;;;12.00;;
10947;SDS011;5526;42.070;24.752;2023-06-26T04:16:20;13.38;;;11.77;;
10947;SDS011;5526;42.070;24.752;2023-06-26T04:18:52;12.35;;;11.20;;
10947;SDS011;5526;42.070;24.752;2023-06-26T04:21:21;11.98;;;10.88;;
10947;SDS011;5526;42.070;24.752;2023-06-26T04:23:50;12.52;;;11.30;;
10947;SDS011;5526;42.070;24.752;2023-06-26T04:26:18;13.52;;;12.20;;
10947;SDS011;5526;42.070;24.752;2023-06-26T04:28:45;13.10;;;11.90;;
10947;SDS011;5526;42.070;24.752;2023-06-26T04:31:13;13.10;;;11.90;;
10947;SDS011;5526;42.070;24.752;2023-06-26T04:33:41;12.18;;;11.05;;
10947;SDS011;5526;42.070;24.752;2023-06-26T04:36:10;13.52;;;12.23;;
10947;SDS011;5526;42.070;24.752;2023-06-26T04:38:38;12.82;;;11.57;;
10947;SDS011;5526;42.070;24.752;2023-06-26T04:41:05;12.60;;;11.15;;
10947;SDS011;5526;42.070;24.752;2023-06-26T04:43:33;11.70;;;10.68;;
10947;SDS011;5526;42.070;24.752;2023-06-26T04:46:02;12.52;;;11.25;;
10947;SDS011;5526;42.070;24.752;2023-06-26T04:48:29;12.05;;;10.85;;
10947;SDS011;5526;42.070;24.752;2023-06-26T04:50:57;12.77;;;11.60;;
10947;SDS011;5526;42.070;24.752;2023-06-26T04:53:27;13.18;;;11.45;;
10947;SDS011;5526;42.070;24.752;2023-06-26T04:55:55;12.15;;;10.95;;
10947;SDS011;5526;42.070;24.752;2023-06-26T04:58:23;12.07;;;10.98;;
10947;SDS011;5526;42.070;24.752;2023-06-26T05:00:50;11.80;;;10.60;;
10947;SDS011;5526;42.070;24.752;2023-06-26T05:03:18;11.32;;;10.32;;
10947;SDS011;5526;42.070;24.752;2023-06-26T05:05:47;11.93;;;10.80;;
10947;SDS011;5526;42.070;24.752;2023-06-26T05:08:16;11.48;;;10.38;;
10947;SDS011;5526;42.070;24.752;2023-06-26T05:10:47;12.00;;;10.77;;
10947;SDS011;5526;42.070;24.752;2023-06-26T05:13:15;11.70;;;10.70;;
10947;SDS011;5526;42.070;24.752;2023-06-26T05:15:44;11.50;;;10.45;;
10947;SDS011;5526;42.070;24.752;2023-06-26T05:18:12;10.93;;;10.00;;
10947;SDS011;5526;42.070;24.752;2023-06-26T05:20:40;12.02;;;10.82;;
10947;SDS011;5526;42.070;24.752;2023-06-26T05:23:12;11.25;;;10.20;;
10947;SDS011;5526;42.070;24.752;2023-06-26T05:25:43;11.93;;;10.82;;
10947;SDS011;5526;42.070;24.752;2023-06-26T05:28:13;10.65;;;9.70;;
10947;SDS011;5526;42.070;24.752;2023-06-26T05:30:44;10.95;;;9.60;;
10947;SDS011;5526;42.070;24.752;2023-06-26T05:33:13;11.52;;;10.35;;
10947;SDS011;5526;42.070;24.752;2023-06-26T05:35:44;11.25;;;10.25;;
10947;SDS011;5526;42.070;24.752;2023-06-26T05:38:31;10.93;;;9.93;;
10947;SDS011;5526;42.070;24.752;2023-06-26T05:41:00;10.40;;;9.52;;
10947;SDS011;5526;42.070;24.752;2023-06-26T05:43:39;10.07;;;9.18;;
10947;SDS011;5526;42.070;24.752;2023-06-26T05:46:09;10.32;;;9.43;;
10947;SDS011;5526;42.070;24.752;2023-06-26T05:48:41;10.18;;;9.38;;
10947;SDS011;5526;42.070;24.752;2023-06-26T05:51:13;10.25;;;9.40;;
10947;SDS011;5526;42.070;24.752;2023-06-26T05:53:41;9.43;;;8.52;;
10947;SDS011;5526;42.070;24.752;2023-06-26T05:56:09;9.07;;;8.27;;
10947;SDS011;5526;42.070;24.752;2023-06-26T05:58:39;9.93;;;9.00;;
10947;SDS011;5526;42.070;24.752;2023-06-26T06:01:08;10.45;;;9.35;;
10947;SDS011;5526;42.070;24.752;2023-06-26T06:03:36;11.32;;;9.10;;
10947;SDS011;5526;42.070;24.752;2023-06-26T06:06:04;10.48;;;9.10;;
10947;SDS011;5526;42.070;24.752;2023-06-26T06:08:37;9.40;;;8.60;;
10947;SDS011;5526;42.070;24.752;2023-06-26T06:11:05;10.40;;;9.50;;
10947;SDS011;5526;42.070;24.752;2023-06-26T06:13:34;9.70;;;8.70;;
10947;SDS011;5526;42.070;24.752;2023-06-26T06:16:11;9.65;;;8.70;;
10947;SDS011;5526;42.070;24.752;2023-06-26T06:18:39;9.73;;;8.77;;
10947;SDS011;5526;42.070;24.752;2023-06-26T06:21:06;9.43;;;8.52;;
10947;SDS011;5526;42.070;24.752;2023-06-26T06:23:34;9.65;;;8.75;;
10947;SDS011;5526;42.070;24.752;2023-06-26T06:26:02;9.43;;;8.60;;
10947;SDS011;5526;42.070;24.752;2023-06-26T06:28:29;9.43;;;8.55;;
10947;SDS011;5526;42.070;24.752;2023-06-26T06:30:57;9.45;;;8.65;;
10947;SDS011;5526;42.070;24.752;2023-06-26T06:33:26;9.27;;;8.55;;
10947;SDS011;5526;42.070;24.752;2023-06-26T06:35:54;8.63;;;7.93;;
10947;SDS011;5526;42.070;24.752;2023-06-26T06:38:21;9.75;;;8.80;;
10947;SDS011;5526;42.070;24.752;2023-06-26T06:40:49;9.43;;;8.55;;
10947;SDS011;5526;42.070;24.752;2023-06-26T06:43:18;8.88;;;8.10;;
10947;SDS011;5526;42.070;24.752;2023-06-26T06:45:45;9.85;;;8.95;;
10947;SDS011;5526;42.070;24.752;2023-06-26T06:48:13;8.95;;;8.15;;
10947;SDS011;5526;42.070;24.752;2023-06-26T06:50:43;9.15;;;8.30;;
10947;SDS011;5526;42.070;24.752;2023-06-26T06:53:10;8.57;;;7.78;;
10947;SDS011;5526;42.070;24.752;2023-06-26T06:55:38;9.70;;;8.90;;
10947;SDS011;5526;42.070;24.752;2023-06-26T06:58:06;9.13;;;8.20;;
10947;SDS011;5526;42.070;24.752;2023-06-26T07:00:34;9.30;;;8.50;;
10947;SDS011;5526;42.070;24.752;2023-06-26T07:03:02;9.60;;;8.70;;
10947;SDS011;5526;42.070;24.752;2023-06-26T07:05:29;9.63;;;8.73;;
10947;SDS011;5526;42.070;24.752;2023-06-26T07:07:59;9.18;;;8.35;;
10947;SDS011;5526;42.070;24.752;2023-06-26T07:10:26;9.45;;;8.10;;
10947;SDS011;5526;42.070;24.752;2023-06-26T07:12:54;9.43;;;8.55;;
10947;SDS011;5526;42.070;24.752;2023-06-26T07:15:22;12.25;;;8.27;;
10947;SDS011;5526;42.070;24.752;2023-06-26T07:17:50;9.18;;;8.27;;
10947;SDS011;5526;42.070;24.752;2023-06-26T07:20:18;8.95;;;8.02;;
10947;SDS011;5526;42.070;24.752;2023-06-26T07:22:46;8.43;;;7.65;;
10947;SDS011;5526;42.070;24.752;2023-06-26T07:25:15;8.50;;;7.68;;
10947;SDS011;5526;42.070;24.752;2023-06-26T07:27:43;9.45;;;8.55;;
10947;SDS011;5526;42.070;24.752;2023-06-26T07:30:11;9.20;;;7.22;;
10947;SDS011;5526;42.070;24.752;2023-06-26T07:32:39;8.65;;;7.85;;
10947;SDS011;5526;42.070;24.752;2023-06-26T07:35:07;8.30;;;7.50;;
10947;SDS011;5526;42.070;24.752;2023-06-26T07:37:35;8.43;;;7.50;;
10947;SDS011;5526;42.070;24.752;2023-06-26T07:40:03;8.43;;;7.63;;
10947;SDS011;5526;42.070;24.752;2023-06-26T07:42:33;8.30;;;7.57;;
10947;SDS011;5526;42.070;24.752;2023-06-26T07:45:01;8.57;;;7.90;;
10947;SDS011;5526;42.070;24.752;2023-06-26T07:47:35;8.65;;;7.32;;
10947;SDS011;5526;42.070;24.752;2023-06-26T07:50:03;6.90;;;6.30;;
10947;SDS011;5526;42.070;24.752;2023-06-26T07:52:31;7.80;;;7.20;;
10947;SDS011;5526;42.070;24.752;2023-06-26T07:54:59;8.55;;;7.80;;
10947;SDS011;5526;42.070;24.752;2023-06-26T07:57:29;7.82;;;7.10;;
10947;SDS011;5526;42.070;24.752;2023-06-26T07:59:59;7.90;;;7.20;;
10947;SDS011;5526;42.070;24.752;2023-06-26T08:02:26;7.25;;;6.57;;
10947;SDS011;5526;42.070;24.752;2023-06-26T08:04:54;6.72;;;6.18;;
10947;SDS011;5526;42.070;24.752;2023-06-26T08:07:22;6.65;;;5.88;;
10947;SDS011;5526;42.070;24.752;2023-06-26T08:09:50;5.82;;;5.18;;
10947;SDS011;5526;42.070;24.752;2023-06-26T08:12:17;6.10;;;5.50;;
10947;SDS011;5526;42.070;24.752;2023-06-26T08:14:45;6.53;;;6.03;;
10947;SDS011;5526;42.070;24.752;2023-06-26T08:17:15;11.13;;;6.88;;
10947;SDS011;5526;42.070;24.752;2023-06-26T08:19:42;8.82;;;6.53;;
10947;SDS011;5526;42.070;24.752;2023-06-26T08:22:10;6.80;;;6.30;;
10947;SDS011;5526;42.070;24.752;2023-06-26T08:24:38;7.93;;;7.32;;
10947;SDS011;5526;42.070;24.752;2023-06-26T08:27:06;6.95;;;6.45;;
10947;SDS011;5526;42.070;24.752;2023-06-26T08:29:33;9.90;;;6.88;;
10947;SDS011;5526;42.070;24.752;2023-06-26T08:32:01;7.38;;;6.78;;
10947;SDS011;5526;42.070;24.752;2023-06-26T08:34:30;7.10;;;6.40;;
10947;SDS011;5526;42.070;24.752;2023-06-26T08:36:58;6.95;;;6.28;;
10947;SDS011;5526;42.070;24.752;2023-06-26T08:39:26;7.18;;;6.63;;
10947;SDS011;5526;42.070;24.752;2023-06-26T08:41:54;6.88;;;6.20;;
10947;SDS011;5526;42.070;24.752;2023-06-26T08:44:22;6.80;;;6.22;;
10947;SDS011;5526;42.070;24.752;2023-06-26T08:46:50;6.60;;;6.00;;
10947;SDS011;5526;42.070;24.752;2023-06-26T08:49:20;6.30;;;5.80;;
10947;SDS011;5526;42.070;24.752;2023-06-26T08:51:55;6.18;;;5.75;;
10947;SDS011;5526;42.070;24.752;2023-06-26T08:54:30;6.75;;;6.20;;
10947;SDS011;5526;42.070;24.752;2023-06-26T08:57:01;7.50;;;6.70;;
10947;SDS011;5526;42.070;24.752;2023-06-26T08:59:30;6.95;;;6.40;;
10947;SDS011;5526;42.070;24.752;2023-06-26T09:01:59;7.50;;;6.90;;
10947;SDS011;5526;42.070;24.752;2023-06-26T09:04:28;8.63;;;7.80;;
10947;SDS011;5526;42.070;24.752;2023-06-26T09:06:59;8.35;;;7.65;;
10947;SDS011;5526;42.070;24.752;2023-06-26T09:09:27;8.70;;;8.00;;
10947;SDS011;5526;42.070;24.752;2023-06-26T09:11:55;8.02;;;7.32;;
10947;SDS011;5526;42.070;24.752;2023-06-26T09:14:23;8.13;;;7.28;;
10947;SDS011;5526;42.070;24.752;2023-06-26T09:16:51;8.68;;;7.97;;
10947;SDS011;5526;42.070;24.752;2023-06-26T09:19:19;7.75;;;7.15;;
10947;SDS011;5526;42.070;24.752;2023-06-26T09:21:48;7.60;;;7.03;;
10947;SDS011;5526;42.070;24.752;2023-06-26T09:24:18;7.38;;;6.70;;
10947;SDS011;5526;42.070;24.752;2023-06-26T09:26:47;6.57;;;6.13;;
10947;SDS011;5526;42.070;24.752;2023-06-26T09:29:16;6.97;;;6.47;;
10947;SDS011;5526;42.070;24.752;2023-06-26T09:31:46;7.22;;;6.60;;
10947;SDS011;5526;42.070;24.752;2023-06-26T09:34:14;7.90;;;7.30;;
10947;SDS011;5526;42.070;24.752;2023-06-26T09:36:42;7.38;;;6.78;;
10947;SDS011;5526;42.070;24.752;2023-06-26T09:39:12;7.90;;;7.13;;
10947;SDS011;5526;42.070;24.752;2023-06-26T09:41:42;7.80;;;7.10;;
10947;SDS011;5526;42.070;24.752;2023-06-26T09:44:10;7.00;;;6.55;;
10947;SDS011;5526;42.070;24.752;2023-06-26T09:46:39;7.85;;;7.18;;
10947;SDS011;5526;42.070;24.752;2023-06-26T09:49:08;7.28;;;6.60;;
10947;SDS011;5526;42.070;24.752;2023-06-26T09:51:37;6.78;;;6.18;;
10947;SDS011;5526;42.070;24.752;2023-06-26T09:54:06;7.43;;;6.72;;
10947;SDS011;5526;42.070;24.752;2023-06-26T09:56:34;10.63;;;8.32;;
10947;SDS011;5526;42.070;24.752;2023-06-26T09:59:04;8.32;;;7.10;;
10947;SDS011;5526;42.070;24.752;2023-06-26T10:01:33;9.77;;;8.20;;
10947;SDS011;5526;42.070;24.752;2023-06-26T10:04:06;9.15;;;7.93;;
10947;SDS011;5526;42.070;24.752;2023-06-26T10:06:34;9.82;;;7.65;;
10947;SDS011;5526;42.070;24.752;2023-06-26T10:09:03;8.50;;;7.63;;
10947;SDS011;5526;42.070;24.752;2023-06-26T10:11:35;7.97;;;7.35;;
10947;SDS011;5526;42.070;24.752;2023-06-26T10:14:09;8.80;;;8.02;;
10947;SDS011;5526;42.070;24.752;2023-06-26T10:16:39;10.30;;;9.40;;
10947;SDS011;5526;42.070;24.752;2023-06-26T10:19:08;10.13;;;9.23;;
10947;SDS011;5526;42.070;24.752;2023-06-26T10:21:38;10.80;;;9.70;;
10947;SDS011;5526;42.070;24.752;2023-06-26T10:24:07;9.95;;;9.07;;
10947;SDS011;5526;42.070;24.752;2023-06-26T10:26:38;10.65;;;9.73;;
10947;SDS011;5526;42.070;24.752;2023-06-26T10:29:12;10.95;;;10.07;;
10947;SDS011;5526;42.070;24.752;2023-06-26T10:31:44;10.63;;;9.68;;
10947;SDS011;5526;42.070;24.752;2023-06-26T10:34:17;9.98;;;9.00;;
10947;SDS011;5526;42.070;24.752;2023-06-26T10:36:45;10.98;;;9.88;;
10947;SDS011;5526;42.070;24.752;2023-06-26T10:39:16;11.73;;;10.70;;
10947;SDS011;5526;42.070;24.752;2023-06-26T10:41:44;11.13;;;10.18;;
10947;SDS011;5526;42.070;24.752;2023-06-26T10:44:15;10.30;;;9.40;;
10947;SDS011;5526;42.070;24.752;2023-06-26T10:46:49;9.75;;;9.05;;
10947;SDS011;5526;42.070;24.752;2023-06-26T10:49:19;9.13;;;8.32;;
10947;SDS011;5526;42.070;24.752;2023-06-26T10:51:47;9.75;;;9.05;;
10947;SDS011;5526;42.070;24.752;2023-06-26T10:54:16;9.70;;;9.00;;
10947;SDS011;5526;42.070;24.752;2023-06-26T10:56:44;9.70;;;8.93;;
10947;SDS011;5526;42.070;24.752;2023-06-26T10:59:19;8.68;;;7.82;;
10947;SDS011;5526;42.070;24.752;2023-06-26T11:01:56;7.65;;;7.15;;
10947;SDS011;5526;42.070;24.752;2023-06-26T11:04:40;7.57;;;7.05;;
10947;SDS011;5526;42.070;24.752;2023-06-26T11:07:18;7.93;;;7.32;;
10947;SDS011;5526;42.070;24.752;2023-06-26T11:09:54;7.78;;;6.95;;
10947;SDS011;5526;42.070;24.752;2023-06-26T11:12:35;7.28;;;6.78;;
10947;SDS011;5526;42.070;24.752;2023-06-26T11:15:09;7.50;;;6.80;;
10947;SDS011;5526;42.070;24.752;2023-06-26T11:17:41;7.60;;;7.00;;
10947;SDS011;5526;42.070;24.752;2023-06-26T11:20:09;8.52;;;6.85;;
10947;SDS011;5526;42.070;24.752;2023-06-26T11:22:39;7.65;;;6.95;;
10947;SDS011;5526;42.070;24.752;2023-06-26T11:25:10;6.68;;;6.18;;
10947;SDS011;5526;42.070;24.752;2023-06-26T11:27:38;6.75;;;6.25;;
10947;SDS011;5526;42.070;24.752;2023-06-26T11:30:07;6.18;;;5.70;;
10947;SDS011;5526;42.070;24.752;2023-06-26T11:32:51;5.65;;;5.15;;
10947;SDS011;5526;42.070;24.752;2023-06-26T11:35:22;5.88;;;5.47;;
10947;SDS011;5526;42.070;24.752;2023-06-26T11:37:55;6.13;;;5.72;;
10947;SDS011;5526;42.070;24.752;2023-06-26T11:40:25;6.20;;;5.63;;
10947;SDS011;5526;42.070;24.752;2023-06-26T11:42:56;6.30;;;5.88;;
10947;SDS011;5526;42.070;24.752;2023-06-26T11:45:26;6.40;;;5.90;;
10947;SDS011;5526;42.070;24.752;2023-06-26T11:47:55;6.80;;;6.30;;
10947;SDS011;5526;42.070;24.752;2023-06-26T11:50:23;6.97;;;6.47;;
10947;SDS011;5526;42.070;24.752;2023-06-26T11:52:54;6.65;;;6.05;;
10947;SDS011;5526;42.070;24.752;2023-06-26T11:55:23;7.72;;;7.13;;
10947;SDS011;5526;42.070;24.752;2023-06-26T11:57:53;7.25;;;6.65;;
10947;SDS011;5526;42.070;24.752;2023-06-26T12:00:24;5.30;;;4.97;;
10947;SDS011;5526;42.070;24.752;2023-06-26T12:02:53;6.05;;;5.53;;
10947;SDS011;5526;42.070;24.752;2023-06-26T12:05:21;6.05;;;5.45;;
10947;SDS011;5526;42.070;24.752;2023-06-26T12:07:49;5.53;;;5.22;;
10947;SDS011;5526;42.070;24.752;2023-06-26T12:10:18;5.80;;;5.03;;
10947;SDS011;5526;42.070;24.752;2023-06-26T12:12:46;5.13;;;4.72;;
10947;SDS011;5526;42.070;24.752;2023-06-26T12:15:15;5.30;;;4.90;;
10947;SDS011;5526;42.070;24.752;2023-06-26T12:17:45;5.78;;;5.07;;
10947;SDS011;5526;42.070;24.752;2023-06-26T12:20:18;5.75;;;5.22;;
10947;SDS011;5526;42.070;24.752;2023-06-26T12:22:47;5.75;;;5.25;;
10947;SDS011;5526;42.070;24.752;2023-06-26T12:25:16;6.25;;;5.68;;
10947;SDS011;5526;42.070;24.752;2023-06-26T12:27:49;6.53;;;5.93;;
10947;SDS011;5526;42.070;24.752;2023-06-26T12:30:17;6.97;;;6.15;;
10947;SDS011;5526;42.070;24.752;2023-06-26T12:32:46;8.27;;;6.10;;
10947;SDS011;5526;42.070;24.752;2023-06-26T12:35:14;10.60;;;6.38;;
10947;SDS011;5526;42.070;24.752;2023-06-26T12:37:42;6.45;;;5.85;;
10947;SDS011;5526;42.070;24.752;2023-06-26T12:40:17;6.75;;;6.15;;
10947;SDS011;5526;42.070;24.752;2023-06-26T12:42:47;6.20;;;5.60;;
10947;SDS011;5526;42.070;24.752;2023-06-26T12:45:15;5.88;;;5.40;;
10947;SDS011;5526;42.070;24.752;2023-06-26T12:47:43;6.07;;;5.53;;
10947;SDS011;5526;42.070;24.752;2023-06-26T12:50:12;6.00;;;5.53;;
10947;SDS011;5526;42.070;24.752;2023-06-26T12:52:40;5.80;;;5.32;;
10947;SDS011;5526;42.070;24.752;2023-06-26T12:55:07;6.10;;;5.50;;
10947;SDS011;5526;42.070;24.752;2023-06-26T12:57:36;5.47;;;5.00;;
10947;SDS011;5526;42.070;24.752;2023-06-26T13:00:04;5.32;;;4.82;;
10947;SDS011;5526;42.070;24.752;2023-06-26T13:02:32;5.78;;;5.22;;
10947;SDS011;5526;42.070;24.752;2023-06-26T13:05:00;6.03;;;5.57;;
10947;SDS011;5526;42.070;24.752;2023-06-26T13:07:30;5.20;;;4.80;;
10947;SDS011;5526;42.070;24.752;2023-06-26T13:09:58;6.43;;;5.90;;
10947;SDS011;5526;42.070;24.752;2023-06-26T13:12:25;6.07;;;5.57;;
10947;SDS011;5526;42.070;24.752;2023-06-26T13:14:55;6.43;;;5.50;;
10947;SDS011;5526;42.070;24.752;2023-06-26T13:17:23;5.63;;;5.22;;
10947;SDS011;5526;42.070;24.752;2023-06-26T13:19:50;5.65;;;5.15;;
10947;SDS011;5526;42.070;24.752;2023-06-26T13:22:20;5.28;;;4.88;;
10947;SDS011;5526;42.070;24.752;2023-06-26T13:24:49;5.95;;;5.45;;
10947;SDS011;5526;42.070;24.752;2023-06-26T13:27:16;6.05;;;5.60;;
10947;SDS011;5526;42.070;24.752;2023-06-26T13:29:44;5.95;;;5.35;;
10947;SDS011;5526;42.070;24.752;2023-06-26T13:32:12;5.05;;;4.43;;
10947;SDS011;5526;42.070;24.752;2023-06-26T13:34:40;5.60;;;4.95;;
10947;SDS011;5526;42.070;24.752;2023-06-26T13:37:08;4.38;;;4.07;;
10947;SDS011;5526;42.070;24.752;2023-06-26T13:39:36;4.55;;;4.10;;
10947;SDS011;5526;42.070;24.752;2023-06-26T13:42:06;4.28;;;3.88;;
10947;SDS011;5526;42.070;24.752;2023-06-26T13:44:34;6.40;;;4.55;;
10947;SDS011;5526;42.070;24.752;2023-06-26T13:47:01;5.05;;;4.45;;
10947;SDS011;5526;42.070;24.752;2023-06-26T13:49:29;5.38;;;4.40;;
10947;SDS011;5526;42.070;24.752;2023-06-26T13:51:57;6.13;;;4.63;;
10947;SDS011;5526;42.070;24.752;2023-06-26T13:54:25;4.70;;;4.35;;
10947;SDS011;5526;42.070;24.752;2023-06-26T13:56:52;4.43;;;4.13;;
10947;SDS011;5526;42.070;24.752;2023-06-26T13:59:25;4.55;;;4.22;;
10947;SDS011;5526;42.070;24.752;2023-06-26T14:01:52;4.82;;;4.53;;
10947;SDS011;5526;42.070;24.752;2023-06-26T14:04:20;5.68;;;5.20;;
10947;SDS011;5526;42.070;24.752;2023-06-26T14:06:48;5.57;;;5.03;;
10947;SDS011;5526;42.070;24.752;2023-06-26T14:09:16;5.72;;;4.43;;
10947;SDS011;5526;42.070;24.752;2023-06-26T14:11:43;4.75;;;4.45;;
10947;SDS011;5526;42.070;24.752;2023-06-26T14:14:11;5.47;;;4.82;;
10947;SDS011;5526;42.070;24.752;2023-06-26T14:16:41;4.63;;;4.22;;
10947;SDS011;5526;42.070;24.752;2023-06-26T14:19:09;4.20;;;3.90;;
10947;SDS011;5526;42.070;24.752;2023-06-26T14:21:39;4.88;;;4.47;;
10947;SDS011;5526;42.070;24.752;2023-06-26T14:24:07;4.60;;;4.20;;
10947;SDS011;5526;42.070;24.752;2023-06-26T14:26:35;4.50;;;4.20;;
10947;SDS011;5526;42.070;24.752;2023-06-26T14:29:04;4.70;;;4.30;;
10947;SDS011;5526;42.070;24.752;2023-06-26T14:31:31;4.90;;;4.38;;
10947;SDS011;5526;42.070;24.752;2023-06-26T14:34:01;4.70;;;4.30;;
10947;SDS011;5526;42.070;24.752;2023-06-26T14:36:29;4.70;;;4.30;;
10947;SDS011;5526;42.070;24.752;2023-06-26T14:38:57;5.10;;;4.80;;
10947;SDS011;5526;42.070;24.752;2023-06-26T14:41:26;4.95;;;4.45;;
10947;SDS011;5526;42.070;24.752;2023-06-26T14:43:54;4.65;;;4.25;;
10947;SDS011;5526;42.070;24.752;2023-06-26T14:46:22;4.93;;;4.53;;
10947;SDS011;5526;42.070;24.752;2023-06-26T14:48:50;4.90;;;4.45;;
10947;SDS011;5526;42.070;24.752;2023-06-26T14:51:19;5.22;;;4.80;;